Time;durP1;ratioP1;P1;durP2;ratioP2;P2;SDS_P1;SDS_P2;PMS_P1;PMS_P2;Temp;Humidity;BMP_temperature;BMP_pressure;BME280_temperature;BME280_humidity;BME280_pressure;Samples;Min_cycle;Max_cycle;Signal;HPM_P1;HPM_P2
2022/08/05 00:01:59;;;;;;;7.10;3.88;;;;;;;23.93;56.27;94794.91;5095091;28;20206;-86
2022/08/05 00:04:26;;;;;;;4.13;3.60;;;;;;;23.91;56.43;94799.53;5095478;28;20208;-83
2022/08/05 00:06:56;;;;;;;3.63;3.33;;;;;;;23.89;56.11;94798.97;5094768;28;20193;-83
2022/08/05 00:09:23;;;;;;;7.32;3.83;;;;;;;23.62;56.08;94746.22;5076256;28;20250;-83
2022/08/05 00:11:50;;;;;;;4.00;3.70;;;;;;;23.86;56.25;94796.78;5093902;28;20189;-84
2022/08/05 00:14:17;;;;;;;4.07;3.67;;;;;;;23.72;56.25;94774.44;5094301;28;20221;-84
2022/08/05 00:16:44;;;;;;;4.40;4.00;;;;;;;23.27;56.21;94705.00;5093958;28;20229;-84
2022/08/05 00:19:11;;;;;;;5.35;3.63;;;;;;;23.82;56.25;94790.41;5094373;28;20194;-83
2022/08/05 00:21:38;;;;;;;4.53;3.25;;;;;;;23.79;56.51;94788.22;5093903;28;20186;-82
2022/08/05 00:24:07;;;;;;;4.10;3.80;;;;;;;23.73;56.40;94784.66;5093929;28;20588;-85
2022/08/05 00:26:33;;;;;;;6.50;3.88;;;;;;;23.62;56.44;94764.47;5094078;28;20669;-83
2022/08/05 00:29:00;;;;;;;5.07;3.60;;;;;;;23.74;56.26;94781.03;5093774;28;20198;-83
2022/08/05 00:31:27;;;;;;;4.95;3.95;;;;;;;23.74;56.30;94782.84;5093401;28;20649;-85
2022/08/05 00:33:54;;;;;;;4.18;3.70;;;;;;;23.71;56.35;94776.25;5093879;28;20189;-84
2022/08/05 00:36:23;;;;;;;5.05;3.95;;;;;;;23.67;56.27;94777.72;5093143;28;20225;-83
2022/08/05 00:38:50;;;;;;;5.53;3.95;;;;;;;23.32;56.19;94725.22;5094183;28;20675;-86
2022/08/05 00:41:27;;;;;;;7.90;3.97;;;;;;;23.61;56.46;94773.31;5093192;28;20194;-82
2022/08/05 00:43:54;;;;;;;5.38;4.13;;;;;;;23.59;56.43;94764.13;5094361;28;20204;-86
2022/08/05 00:46:21;;;;;;;7.65;3.83;;;;;;;23.59;56.53;94771.94;5093325;28;20189;-83
2022/08/05 00:48:48;;;;;;;5.40;4.47;;;;;;;23.57;56.34;94771.34;5094257;28;20202;-83
2022/08/05 00:51:15;;;;;;;4.70;4.10;;;;;;;23.55;56.66;94771.56;5093659;28;20212;-85
2022/08/05 00:53:42;;;;;;;4.00;3.70;;;;;;;23.53;56.41;94770.97;5093374;28;20193;-83
2022/08/05 00:56:09;;;;;;;5.60;4.38;;;;;;;23.51;56.55;94762.56;5093702;28;20214;-86
2022/08/05 00:58:37;;;;;;;4.32;3.92;;;;;;;23.47;56.71;94770.03;5093325;28;20193;-85
2022/08/05 01:01:04;;;;;;;4.70;4.30;;;;;;;23.45;56.49;94763.44;5093332;28;20193;-83
2022/08/05 01:03:31;;;;;;;4.50;4.00;;;;;;;23.44;56.58;94770.47;5093129;28;20289;-85
2022/08/05 01:05:58;;;;;;;4.22;3.83;;;;;;;23.41;56.69;94773.53;5093486;28;20186;-86
2022/08/05 01:08:25;;;;;;;5.03;4.53;;;;;;;23.13;56.77;94734.81;5093666;28;20178;-87
2022/08/05 01:11:02;;;;;;;6.53;4.57;;;;;;;23.37;56.61;94772.34;5094134;28;20209;-86
2022/08/05 01:13:36;;;;;;;4.97;4.57;;;;;;;23.33;56.88;94765.97;5092919;28;20648;-88
2022/08/05 01:16:10;;;;;;;4.50;4.05;;;;;;;23.31;57.04;94767.19;5092854;28;20228;-87
2022/08/05 01:18:42;;;;;;;4.50;4.10;;;;;;;23.17;57.03;94753.47;5093145;28;20794;-86
2022/08/05 01:21:18;;;;;;;10.65;4.20;;;;;;;23.26;57.36;94775.66;5093196;28;20268;-85
2022/08/05 01:24:01;;;;;;;4.30;3.97;;;;;;;23.14;57.55;94759.88;5104637;28;20182;-84
2022/08/05 01:26:54;;;;;;;5.43;4.13;;;;;;;23.09;57.73;94751.91;5103636;28;20198;-85
2022/08/05 01:29:29;;;;;;;4.18;3.88;;;;;;;23.16;58.15;94776.13;5096166;28;20756;-86
2022/08/05 01:32:02;;;;;;;4.35;3.95;;;;;;;23.10;58.09;94763.13;5093014;28;20185;-87
2022/08/05 01:34:41;;;;;;;4.25;3.95;;;;;;;23.10;58.39;94781.41;5092220;28;20196;-85
2022/08/05 01:37:16;;;;;;;6.25;4.43;;;;;;;23.09;58.21;94779.81;5092048;28;20232;-87
2022/08/05 01:39:46;;;;;;;4.85;3.95;;;;;;;23.06;58.37;94780.22;5092896;28;20200;-86
2022/08/05 01:42:16;;;;;;;4.38;3.97;;;;;;;23.03;58.78;94776.25;5092817;28;20193;-86
2022/08/05 01:44:46;;;;;;;5.57;4.25;;;;;;;23.01;58.74;94767.81;5092606;28;20200;-86
2022/08/05 01:47:17;;;;;;;4.70;3.90;;;;;;;22.70;58.70;94729.50;5092560;28;20177;-87
2022/08/05 01:49:46;;;;;;;4.28;3.92;;;;;;;22.97;58.83;94779.69;5093045;28;20190;-85
2022/08/05 01:52:14;;;;;;;5.38;3.67;;;;;;;22.94;58.70;94780.13;5092076;28;20223;-86
2022/08/05 01:54:45;;;;;;;4.43;4.03;;;;;;;22.89;58.48;94778.13;5092676;28;20358;-86
2022/08/05 01:57:14;;;;;;;5.38;4.70;;;;;;;22.87;58.71;94771.53;5092574;28;20213;-87
2022/08/05 01:59:42;;;;;;;9.45;4.90;;;;;;;22.68;58.75;94750.59;5092106;28;20186;-86
2022/08/05 02:02:12;;;;;;;7.07;5.22;;;;;;;22.90;58.96;94778.97;5092961;28;20200;-83
2022/08/05 02:04:42;;;;;;;6.18;4.72;;;;;;;22.88;58.84;94783.53;5092238;28;20201;-84
2022/08/05 02:07:10;;;;;;;5.55;4.55;;;;;;;22.67;59.20;94751.63;5092596;28;20202;-85
2022/08/05 02:09:36;;;;;;;17.40;5.03;;;;;;;22.84;59.33;94782.38;5092429;28;20685;-83
2022/08/05 02:12:08;;;;;;;5.38;4.63;;;;;;;22.78;59.43;94771.78;5092284;28;20197;-83
2022/08/05 02:14:42;;;;;;;4.82;4.25;;;;;;;22.79;59.46;94781.19;5091813;28;21015;-82
2022/08/05 02:17:16;;;;;;;5.95;5.00;;;;;;;22.68;59.39;94768.84;5092427;28;20220;-84
2022/08/05 02:19:48;;;;;;;4.80;4.40;;;;;;;22.73;59.60;94778.63;5092973;28;20190;-85
2022/08/05 02:22:19;;;;;;;5.15;4.38;;;;;;;22.60;59.72;94758.66;5091811;28;20220;-84
2022/08/05 02:24:50;;;;;;;8.15;5.10;;;;;;;22.69;59.68;94772.25;5092250;28;20184;-83
2022/08/05 02:27:18;;;;;;;6.95;4.10;;;;;;;22.66;59.74;94776.06;5091927;28;20598;-83
2022/08/05 02:29:47;;;;;;;4.82;4.03;;;;;;;22.65;59.93;94778.88;5092375;28;20281;-85
2022/08/05 02:32:20;;;;;;;4.70;4.25;;;;;;;22.46;59.82;94752.75;5091882;28;20200;-84
2022/08/05 02:34:47;;;;;;;6.50;4.35;;;;;;;22.54;60.03;94769.94;5091925;28;20216;-83
2022/08/05 02:37:15;;;;;;;4.82;4.32;;;;;;;22.55;59.95;94779.34;5091592;28;20235;-83
2022/08/05 02:39:43;;;;;;;6.97;4.85;;;;;;;22.51;60.20;94776.38;5091704;28;20584;-89
2022/08/05 02:42:11;;;;;;;8.05;4.15;;;;;;;22.48;60.09;94779.38;5091365;28;20189;-86
2022/08/05 02:44:41;;;;;;;5.35;3.95;;;;;;;22.48;59.98;94770.75;5091879;28;20186;-86
2022/08/05 02:47:12;;;;;;;7.45;4.65;;;;;;;22.46;60.05;94773.59;5091857;28;20193;-85
2022/08/05 02:49:44;;;;;;;4.90;4.50;;;;;;;22.34;59.94;94756.22;5092209;28;20243;-83
2022/08/05 02:52:14;;;;;;;7.43;3.85;;;;;;;22.39;60.07;94772.03;5091248;28;20193;-86
2022/08/05 02:54:43;;;;;;;4.82;3.88;;;;;;;22.37;60.19;94769.63;5091432;28;20668;-85
2022/08/05 02:57:13;;;;;;;4.78;4.32;;;;;;;22.24;60.16;94751.47;5091688;28;20252;-84
2022/08/05 02:59:42;;;;;;;6.78;4.22;;;;;;;22.30;60.25;94771.47;5092197;28;20178;-82
2022/08/05 03:02:11;;;;;;;6.30;4.25;;;;;;;22.24;60.43;94764.50;5091789;28;20189;-83
2022/08/05 03:04:40;;;;;;;8.30;4.28;;;;;;;22.21;60.35;94757.09;5091001;28;20202;-86
2022/08/05 03:07:07;;;;;;;5.63;4.30;;;;;;;22.18;60.42;94763.50;5091293;28;20200;-85
2022/08/05 03:09:36;;;;;;;6.63;4.22;;;;;;;22.22;60.49;94772.50;5091601;28;20197;-87
2022/08/05 03:12:03;;;;;;;5.70;3.80;;;;;;;22.20;60.53;94768.53;5090946;28;20280;-83
2022/08/05 03:14:30;;;;;;;4.90;4.38;;;;;;;22.17;60.35;94777.53;5090928;28;20599;-83
2022/08/05 03:16:57;;;;;;;4.43;4.03;;;;;;;22.10;60.53;94766.31;5091229;28;20608;-86
2022/08/05 03:19:30;;;;;;;4.20;3.90;;;;;;;22.03;60.78;94766.34;5091278;28;20204;-83
2022/08/05 03:21:58;;;;;;;4.57;4.18;;;;;;;22.10;60.74;94779.31;5091680;28;20194;-85
2022/08/05 03:24:26;;;;;;;5.15;3.90;;;;;;;22.03;60.73;94768.94;5090896;28;20192;-83
2022/08/05 03:26:53;;;;;;;4.18;3.78;;;;;;;21.97;60.86;94766.34;5091694;28;20197;-85
2022/08/05 03:29:20;;;;;;;6.25;3.97;;;;;;;22.02;60.39;94767.34;5092422;28;20200;-85
2022/08/05 03:31:47;;;;;;;6.25;4.13;;;;;;;22.01;60.55;94768.34;5092679;28;20194;-84
2022/08/05 03:34:14;;;;;;;4.82;3.97;;;;;;;21.91;60.28;94762.00;5091909;28;20189;-86
2022/08/05 03:36:41;;;;;;;3.80;3.50;;;;;;;21.99;60.23;94774.78;5091556;28;20190;-85
2022/08/05 03:39:09;;;;;;;4.07;3.70;;;;;;;21.99;60.27;94775.56;5092217;28;20269;-84
2022/08/05 03:41:36;;;;;;;8.05;3.70;;;;;;;21.95;60.15;94777.00;5092149;28;20194;-86
2022/08/05 03:44:03;;;;;;;5.18;3.88;;;;;;;21.94;60.05;94775.41;5091985;28;20192;-87
2022/08/05 03:46:30;;;;;;;4.32;3.90;;;;;;;21.94;60.32;94779.81;5092094;28;20192;-86
2022/08/05 03:48:58;;;;;;;4.13;3.72;;;;;;;21.83;60.26;94762.22;5091534;28;20440;-88
2022/08/05 03:51:30;;;;;;;3.95;3.58;;;;;;;21.87;60.36;94773.81;5092269;28;20209;-88
2022/08/05 03:54:03;;;;;;;3.80;3.50;;;;;;;21.81;60.45;94761.63;5092243;28;20189;-87
2022/08/05 03:56:37;;;;;;;4.25;3.80;;;;;;;21.87;60.63;94777.22;5091090;28;20185;-87
2022/08/05 03:59:07;;;;;;;5.28;3.85;;;;;;;21.73;61.09;94757.44;5091850;28;20213;-87
2022/08/05 04:01:39;;;;;;;5.00;4.60;;;;;;;21.84;61.01;94772.41;5091536;28;20250;-87
2022/08/05 04:04:08;;;;;;;6.18;4.93;;;;;;;21.88;60.91;94768.41;5091554;28;20293;-87
2022/08/05 04:06:35;;;;;;;4.77;4.37;;;;;;;21.86;61.36;94769.63;5091553;28;20196;-84
2022/08/05 04:09:05;;;;;;;8.85;5.00;;;;;;;21.88;61.80;94773.59;5091891;28;20204;-87
2022/08/05 04:11:33;;;;;;;7.25;5.50;;;;;;;21.87;61.67;94773.81;5091957;28;20198;-81
2022/08/05 04:14:06;;;;;;;10.13;5.57;;;;;;;21.86;61.55;94777.44;5093839;28;20225;-82
2022/08/05 04:16:35;;;;;;;6.72;5.43;;;;;;;21.85;61.69;94779.25;5093875;28;20190;-84
2022/08/05 04:19:02;;;;;;;5.80;4.80;;;;;;;21.81;61.61;94779.84;5092227;28;20718;-85
2022/08/05 04:21:29;;;;;;;8.20;5.18;;;;;;;21.85;61.23;94779.25;5091882;28;20194;-86
2022/08/05 04:23:57;;;;;;;6.63;4.95;;;;;;;21.87;61.21;94779.03;5094463;28;20276;-87
2022/08/05 04:26:25;;;;;;;5.57;5.03;;;;;;;21.89;60.99;94782.22;5099357;28;20557;-87
2022/08/05 04:28:53;;;;;;;7.78;4.50;;;;;;;21.89;60.69;94777.81;5094515;28;20293;-84
2022/08/05 04:31:20;;;;;;;8.63;4.78;;;;;;;21.92;60.53;94769.59;5094742;28;20186;-83
2022/08/05 04:33:48;;;;;;;7.72;5.35;;;;;;;21.88;60.79;94763.19;5095027;28;20614;-84
2022/08/05 04:36:15;;;;;;;6.68;5.10;;;;;;;21.87;60.73;94763.41;5094714;28;20225;-84
2022/08/05 04:38:42;;;;;;;6.60;4.65;;;;;;;21.96;60.53;94775.97;5093885;28;20225;-84
2022/08/05 04:41:09;;;;;;;7.78;5.75;;;;;;;21.98;60.72;94776.59;5094148;28;20185;-85
2022/08/05 04:43:36;;;;;;;7.40;5.95;;;;;;;21.99;60.67;94772.19;5094350;28;20190;-84
2022/08/05 04:46:04;;;;;;;9.48;5.43;;;;;;;21.72;61.08;94746.22;5094611;28;20196;-84
2022/08/05 04:48:32;;;;;;;5.57;4.80;;;;;;;21.87;60.87;94766.00;5094537;28;20193;-83
2022/08/05 04:50:59;;;;;;;7.75;4.90;;;;;;;21.95;61.06;94777.00;5093876;28;20670;-83
2022/08/05 04:53:27;;;;;;;7.38;5.60;;;;;;;21.64;61.12;94717.81;5094413;28;20683;-85
2022/08/05 04:55:54;;;;;;;9.82;5.97;;;;;;;21.93;61.65;94760.75;5095040;28;21209;-86
2022/08/05 04:58:21;;;;;;;6.40;5.80;;;;;;;21.85;61.56;94768.81;5094900;28;20231;-86
2022/08/05 05:00:48;;;;;;;5.53;5.13;;;;;;;21.81;61.55;94752.00;5094871;28;20194;-89
2022/08/05 05:03:17;;;;;;;8.30;6.30;;;;;;;21.78;61.83;94765.44;5095239;28;20200;-87
2022/08/05 05:05:44;;;;;;;6.88;6.22;;;;;;;21.29;62.12;94660.06;5093945;28;20225;-84
2022/08/05 05:08:11;;;;;;;7.13;6.38;;;;;;;21.94;62.05;94761.59;5094199;28;20623;-86
2022/08/05 05:10:42;;;;;;;6.90;6.20;;;;;;;21.80;61.98;94739.97;5094160;28;20698;-86
2022/08/05 05:13:10;;;;;;;5.70;5.15;;;;;;;22.20;62.24;94765.91;5095299;28;20193;-88
2022/08/05 05:15:37;;;;;;;10.35;5.88;;;;;;;22.37;62.06;94768.84;5094831;28;20716;-82
2022/08/05 05:18:04;;;;;;;9.95;6.18;;;;;;;22.51;61.90;94755.50;5093317;28;20225;-82
2022/08/05 05:20:33;;;;;;;12.63;5.80;;;;;;;22.62;61.09;94764.44;5095430;28;20194;-82
2022/08/05 05:23:03;;;;;;;11.13;6.00;;;;;;;22.74;60.67;94759.38;5097778;28;20188;-85
2022/08/05 05:25:30;;;;;;;7.43;5.68;;;;;;;22.82;60.44;94755.72;5100825;28;20201;-88
2022/08/05 05:27:57;;;;;;;6.00;5.45;;;;;;;23.02;60.26;94762.41;5097311;28;20197;-87
2022/08/05 05:30:24;;;;;;;7.80;5.70;;;;;;;22.88;59.69;94719.13;5096894;28;20188;-88
2022/08/05 05:32:51;;;;;;;11.88;5.50;;;;;;;23.31;59.03;94767.97;5096603;28;20217;-83
2022/08/05 05:35:18;;;;;;;10.00;5.95;;;;;;;23.38;58.80;94753.06;5105509;28;20217;-83
2022/08/05 05:37:50;;;;;;;7.53;5.63;;;;;;;23.35;58.28;94731.81;5107673;28;20205;-85
2022/08/05 05:40:19;;;;;;;8.05;5.97;;;;;;;23.62;58.28;94754.03;5109923;28;20185;-83
2022/08/05 05:42:45;;;;;;;9.55;6.00;;;;;;;23.70;57.88;94766.03;5111334;28;20273;-83
2022/08/05 05:45:13;;;;;;;10.25;6.28;;;;;;;23.72;56.91;94764.81;5112644;28;20193;-83
2022/08/05 05:47:40;;;;;;;18.15;6.15;;;;;;;23.71;56.97;94741.53;5111610;28;20279;-86
2022/08/05 05:50:08;;;;;;;10.07;5.47;;;;;;;24.06;56.62;94767.03;5097088;28;20211;-85
2022/08/05 05:52:35;;;;;;;7.50;5.00;;;;;;;24.22;55.71;94766.41;5099969;28;20190;-84
2022/08/05 05:55:05;;;;;;;5.25;4.75;;;;;;;24.37;55.76;94769.47;5094057;28;20186;-85
2022/08/05 05:57:32;;;;;;;6.70;5.97;;;;;;;24.30;53.66;94771.34;5093316;28;20208;-85
2022/08/05 05:59:59;;;;;;;15.35;8.43;;;;;;;24.32;54.08;94769.31;5092394;28;20186;-86
2022/08/05 06:02:26;;;;;;;22.35;17.30;;;;;;;24.26;53.82;94772.81;5091929;28;20178;-85
2022/08/05 06:04:53;;;;;;;9.25;5.50;;;;;;;24.29;54.01;94775.78;5092222;28;20201;-85
2022/08/05 06:07:19;;;;;;;5.35;4.63;;;;;;;24.35;54.02;94776.72;5092357;28;20675;-85
2022/08/05 06:09:46;;;;;;;12.00;5.35;;;;;;;24.44;53.61;94774.63;5092392;28;20194;-87
2022/08/05 06:12:14;;;;;;;7.32;4.97;;;;;;;24.58;53.68;94772.63;5092740;28;20190;-85
2022/08/05 06:14:43;;;;;;;5.93;5.03;;;;;;;24.70;53.65;94773.47;5092377;28;20221;-85
2022/08/05 06:17:10;;;;;;;5.55;5.03;;;;;;;24.77;53.13;94782.00;5092368;28;20193;-86
2022/08/05 06:19:37;;;;;;;5.75;4.68;;;;;;;24.91;53.31;94774.75;5092340;28;20218;-86
2022/08/05 06:22:05;;;;;;;6.90;5.40;;;;;;;24.97;52.87;94763.41;5092904;28;20660;-88
2022/08/05 06:24:32;;;;;;;6.85;5.22;;;;;;;25.14;53.04;94774.84;5093365;28;20825;-87
2022/08/05 06:26:59;;;;;;;7.25;5.03;;;;;;;25.25;52.07;94775.84;5093030;28;20272;-86
2022/08/05 06:29:27;;;;;;;8.90;5.30;;;;;;;25.20;52.20;94762.66;5091440;28;20178;-86
2022/08/05 06:31:54;;;;;;;6.30;4.68;;;;;;;25.46;52.63;94767.44;5093148;28;20177;-84
2022/08/05 06:34:21;;;;;;;9.23;4.85;;;;;;;25.55;52.21;94764.47;5093966;28;20185;-86
2022/08/05 06:36:48;;;;;;;7.22;5.20;;;;;;;25.75;51.31;94770.16;5093213;28;20200;-87
2022/08/05 06:39:16;;;;;;;12.48;5.05;;;;;;;25.71;51.45;94748.84;5093916;28;20760;-87
2022/08/05 06:41:43;;;;;;;8.50;5.00;;;;;;;25.97;51.47;94773.78;5091796;28;20594;-86
2022/08/05 06:44:10;;;;;;;10.43;5.22;;;;;;;26.19;50.04;94775.78;5092009;28;20177;-86
2022/08/05 06:46:38;;;;;;;8.45;4.82;;;;;;;26.41;49.43;94768.06;5091011;28;20185;-86
2022/08/05 06:49:05;;;;;;;11.80;4.80;;;;;;;26.25;48.76;94711.91;5091664;28;20196;-87
2022/08/05 06:51:32;;;;;;;4.88;4.45;;;;;;;26.71;49.56;94759.97;5091029;28;20691;-86
2022/08/05 06:54:00;;;;;;;8.68;5.40;;;;;;;26.90;48.28;94774.50;5091526;28;20262;-85
2022/08/05 06:56:27;;;;;;;7.05;4.70;;;;;;;27.08;48.13;94770.84;5091360;28;20194;-86
2022/08/05 06:58:54;;;;;;;5.40;4.68;;;;;;;27.26;47.44;94764.56;5091420;28;20222;-87
2022/08/05 07:01:22;;;;;;;8.10;5.05;;;;;;;27.36;47.37;94766.56;5091580;28;20189;-87
2022/08/05 07:03:50;;;;;;;5.68;4.88;;;;;;;27.32;47.21;94755.72;5092292;28;20195;-86
2022/08/05 07:06:17;;;;;;;6.50;4.80;;;;;;;27.53;46.96;94751.56;5090817;28;20202;-85
2022/08/05 07:08:44;;;;;;;8.10;4.70;;;;;;;27.70;46.72;94760.19;5091149;28;20196;-86
2022/08/05 07:11:11;;;;;;;5.70;4.45;;;;;;;27.89;46.46;94759.94;5091917;28;20185;-86
2022/08/05 07:19:09;;;;;;;13.32;5.60;;;;;;;28.63;45.51;94768.19;5093464;28;20228;-86
2022/08/05 07:21:35;;;;;;;7.10;4.85;;;;;;;28.83;44.52;94764.91;5101313;28;20228;-82
2022/08/05 07:24:03;;;;;;;7.00;5.05;;;;;;;29.00;44.34;94767.47;5096997;28;20197;-85
2022/08/05 07:26:29;;;;;;;6.75;5.05;;;;;;;29.25;43.29;94772.16;5091748;28;20189;-85
2022/08/05 07:28:56;;;;;;;6.88;4.80;;;;;;;29.38;43.35;94761.16;5092038;28;20182;-83
2022/08/05 07:31:23;;;;;;;5.38;4.45;;;;;;;29.60;42.91;94766.34;5092477;28;20181;-85
2022/08/05 07:33:50;;;;;;;6.03;4.53;;;;;;;29.79;42.66;94773.81;5093317;28;20211;-85
2022/08/05 07:36:18;;;;;;;10.48;5.18;;;;;;;29.96;42.47;94764.66;5091281;28;20573;-86
2022/08/05 07:38:45;;;;;;;11.77;5.95;;;;;;;29.63;42.28;94736.84;5091163;28;20304;-84
2022/08/05 07:41:16;;;;;;;6.57;5.55;;;;;;;29.96;41.50;94762.03;5092645;28;20185;-86
2022/08/05 07:43:43;;;;;;;10.50;5.88;;;;;;;29.97;41.97;94765.50;5091384;28;20587;-85
2022/08/05 07:46:11;;;;;;;13.23;5.63;;;;;;;30.14;41.73;94762.63;5091654;28;20188;-87
2022/08/05 07:48:38;;;;;;;27.00;20.13;;;;;;;30.29;41.44;94769.84;5091220;28;20190;-83
2022/08/05 07:51:05;;;;;;;22.55;17.58;;;;;;;30.42;40.66;94770.16;5091614;28;20185;-85
2022/08/05 07:53:35;;;;;;;38.97;31.00;;;;;;;30.54;41.23;94771.78;5090973;28;20200;-84
2022/08/05 07:56:02;;;;;;;13.88;12.10;;;;;;;30.28;40.96;94713.66;5091827;28;20256;-83
2022/08/05 07:58:29;;;;;;;7.07;5.40;;;;;;;30.53;39.79;94726.13;5092733;28;20221;-83
2022/08/05 08:00:55;;;;;;;9.35;5.05;;;;;;;30.72;39.61;94740.41;5095018;28;20193;-87
2022/08/05 08:03:23;;;;;;;6.05;4.60;;;;;;;30.99;39.67;94756.00;5094850;28;20204;-85
2022/08/05 08:05:51;;;;;;;7.65;4.68;;;;;;;30.77;39.44;94700.00;5094678;28;20294;-85
2022/08/05 08:08:18;;;;;;;9.02;4.43;;;;;;;31.32;38.69;94763.69;5094978;28;20189;-82
2022/08/05 08:10:47;;;;;;;6.75;5.07;;;;;;;31.38;39.14;94760.78;5095473;28;20192;-83
2022/08/05 08:13:13;;;;;;;10.77;5.10;;;;;;;31.53;38.05;94762.63;5095799;28;20640;-83
2022/08/05 08:15:40;;;;;;;6.78;4.60;;;;;;;31.67;38.53;94762.84;5094523;28;20218;-82
2022/08/05 08:18:07;;;;;;;9.55;5.57;;;;;;;31.78;37.75;94758.31;5093846;28;20664;-82
2022/08/05 08:20:34;;;;;;;12.02;5.13;;;;;;;31.83;38.08;94760.97;5093775;28;20668;-85
2022/08/05 08:23:01;;;;;;;8.65;5.00;;;;;;;31.85;37.00;94759.63;5094543;28;20186;-83
2022/08/05 08:25:29;;;;;;;7.55;4.22;;;;;;;31.85;37.72;94764.16;5094224;28;20610;-83
2022/08/05 08:27:58;;;;;;;4.70;4.18;;;;;;;31.83;37.64;94759.13;5094404;28;20277;-82
2022/08/05 08:30:25;;;;;;;5.18;4.20;;;;;;;31.53;37.59;94748.59;5094487;28;20277;-82
2022/08/05 08:32:52;;;;;;;4.38;3.83;;;;;;;31.67;37.18;94746.97;5093643;28;20587;-83
2022/08/05 08:35:19;;;;;;;6.63;4.28;;;;;;;31.84;37.77;94758.06;5094215;28;20268;-83
2022/08/05 08:37:46;;;;;;;4.43;4.03;;;;;;;31.77;36.39;94725.00;5094687;28;20185;-84
2022/08/05 08:40:13;;;;;;;8.13;4.93;;;;;;;32.00;36.98;94753.53;5094055;28;20724;-84
2022/08/05 08:42:43;;;;;;;6.30;4.13;;;;;;;32.04;37.08;94748.47;5094631;28;20181;-86
2022/08/05 08:45:12;;;;;;;4.32;3.92;;;;;;;32.12;36.56;94753.97;5095558;28;20552;-87
2022/08/05 08:47:40;;;;;;;8.48;3.80;;;;;;;32.18;36.88;94757.41;5094514;28;20182;-85
2022/08/05 08:50:11;;;;;;;6.93;4.45;;;;;;;32.29;36.74;94752.84;5094067;28;20632;-85
2022/08/05 08:52:38;;;;;;;4.15;3.70;;;;;;;32.34;36.89;94750.16;5094329;28;20197;-86
2022/08/05 08:55:06;;;;;;;4.72;3.33;;;;;;;32.39;35.72;94756.28;5094836;28;20186;-83
2022/08/05 08:57:34;;;;;;;7.90;3.40;;;;;;;32.43;35.31;94748.59;5094430;28;20182;-86
2022/08/05 09:00:01;;;;;;;4.95;3.42;;;;;;;32.39;34.75;94752.84;5093529;28;20224;-87
2022/08/05 09:02:30;;;;;;;5.32;3.33;;;;;;;32.17;35.08;94721.44;5094247;28;20196;-85
2022/08/05 09:04:57;;;;;;;9.15;3.00;;;;;;;32.28;35.02;94744.13;5094074;28;20194;-86
2022/08/05 09:07:23;;;;;;;3.83;2.78;;;;;;;32.32;34.48;94744.38;5093977;28;20568;-85
2022/08/05 09:09:50;;;;;;;3.28;2.92;;;;;;;32.28;34.73;94741.47;5093778;28;20182;-84
2022/08/05 09:12:17;;;;;;;3.13;2.92;;;;;;;32.28;34.41;94738.03;5092812;28;20196;-84
2022/08/05 09:14:44;;;;;;;3.65;3.28;;;;;;;32.36;34.57;94738.25;5094086;28;20225;-86
2022/08/05 09:17:12;;;;;;;3.85;3.20;;;;;;;32.06;34.97;94680.19;5093832;28;20197;-88
2022/08/05 09:19:43;;;;;;;5.22;3.38;;;;;;;31.95;34.59;94730.53;5100702;28;20219;-84
2022/08/05 09:22:21;;;;;;;5.75;3.50;;;;;;;31.83;35.25;94722.09;5107172;28;20197;-84
2022/08/05 09:25:10;;;;;;;3.50;3.20;;;;;;;32.04;35.26;94720.16;5084902;28;20684;-83
2022/08/05 09:27:38;;;;;;;3.70;3.40;;;;;;;32.08;34.81;94709.81;5095856;28;20220;-86
2022/08/05 09:30:06;;;;;;;6.00;3.53;;;;;;;31.87;35.26;94680.03;5103628;28;20194;-83
2022/08/05 09:32:37;;;;;;;5.00;3.53;;;;;;;32.15;35.06;94718.25;5093092;28;20669;-85
2022/08/05 09:35:12;;;;;;;4.63;3.20;;;;;;;32.09;34.74;94703.47;5096629;28;20196;-84
2022/08/05 09:37:50;;;;;;;2.85;2.42;;;;;;;32.26;33.82;94717.16;5093176;28;20185;-86
2022/08/05 09:40:36;;;;;;;2.80;2.60;;;;;;;32.32;33.32;94707.31;5092500;28;20232;-85
2022/08/05 09:43:05;;;;;;;3.05;2.60;;;;;;;32.37;33.64;94709.91;5094564;28;20186;-86
2022/08/05 09:45:37;;;;;;;3.60;2.58;;;;;;;32.41;33.17;94700.41;5096831;28;20285;-87
2022/08/05 09:48:19;;;;;;;3.67;2.90;;;;;;;32.43;33.40;94707.00;5093012;28;20181;-85
2022/08/05 09:50:55;;;;;;;2.75;2.50;;;;;;;32.51;32.79;94704.81;5096247;28;20748;-85
2022/08/05 09:53:23;;;;;;;3.30;2.53;;;;;;;32.53;33.00;94702.72;5097635;28;20231;-87
2022/08/05 09:55:55;;;;;;;3.55;2.70;;;;;;;32.29;33.08;94682.16;5104990;28;20730;-87
2022/08/05 09:58:23;;;;;;;3.65;2.83;;;;;;;32.39;33.63;94695.38;5103040;28;20182;-85
2022/08/05 10:01:03;;;;;;;3.10;2.80;;;;;;;32.38;33.21;94698.28;5096904;28;20225;-88
2022/08/05 10:03:30;;;;;;;3.80;3.03;;;;;;;32.32;33.63;94691.44;5090472;28;20186;-85
2022/08/05 10:06:03;;;;;;;3.10;2.83;;;;;;;32.34;33.86;94695.41;5094779;28;20687;-86
2022/08/05 10:08:30;;;;;;;5.53;2.58;;;;;;;32.08;33.70;94689.44;5093582;28;20260;-84
2022/08/05 10:10:57;;;;;;;3.30;2.70;;;;;;;32.13;33.79;94683.34;5092440;28;20194;-85
2022/08/05 10:13:30;;;;;;;5.30;3.10;;;;;;;32.23;33.52;94688.56;5092555;28;20201;-88
2022/08/05 10:15:59;;;;;;;2.75;2.55;;;;;;;32.16;33.63;94686.22;5092833;28;20237;-85
2022/08/05 10:18:30;;;;;;;3.50;3.20;;;;;;;32.04;33.45;94674.38;5092577;28;20189;-88
2022/08/05 10:21:00;;;;;;;5.57;3.28;;;;;;;32.05;33.77;94676.75;5099234;28;20228;-86
2022/08/05 10:23:31;;;;;;;2.97;2.78;;;;;;;32.03;33.18;94676.22;5093003;28;20181;-87
2022/08/05 10:25:59;;;;;;;3.28;3.05;;;;;;;32.09;33.39;94674.38;5092083;28;20576;-86
2022/08/05 10:28:27;;;;;;;3.65;3.30;;;;;;;32.06;33.56;94672.25;5092511;28;20190;-87
2022/08/05 10:30:55;;;;;;;3.20;2.70;;;;;;;32.10;33.14;94673.28;5092653;28;20201;-85
2022/08/05 10:33:24;;;;;;;3.67;2.85;;;;;;;32.12;33.52;94669.28;5091801;28;20196;-86
2022/08/05 10:35:52;;;;;;;5.88;2.80;;;;;;;31.88;33.84;94641.94;5091858;28;20197;-84
2022/08/05 10:38:19;;;;;;;3.25;2.83;;;;;;;32.11;33.81;94672.22;5091939;28;20212;-86
2022/08/05 10:40:56;;;;;;;7.07;3.20;;;;;;;32.14;33.44;94669.03;5092958;28;20225;-85
2022/08/05 10:43:43;;;;;;;4.38;3.05;;;;;;;32.12;33.59;94663.22;5093155;28;20220;-88
2022/08/05 10:46:12;;;;;;;3.17;2.88;;;;;;;32.12;33.44;94664.00;5093360;28;20299;-87
2022/08/05 10:48:41;;;;;;;3.30;2.88;;;;;;;32.13;32.99;94657.66;5092760;28;20659;-85
2022/08/05 10:51:13;;;;;;;4.95;3.60;;;;;;;32.12;33.15;94658.72;5091806;28;20294;-84
2022/08/05 10:53:44;;;;;;;3.60;3.15;;;;;;;32.19;32.88;94663.72;5092632;28;20185;-85
2022/08/05 10:56:15;;;;;;;3.80;3.50;;;;;;;32.18;32.93;94654.97;5092464;28;20191;-84
2022/08/05 10:58:50;;;;;;;5.40;3.45;;;;;;;32.10;33.06;94630.94;5092391;28;20212;-86
2022/08/05 11:01:17;;;;;;;3.38;3.08;;;;;;;32.10;33.02;94642.31;5091680;28;20572;-82
2022/08/05 11:03:59;;;;;;;4.00;3.55;;;;;;;32.11;32.82;94638.59;5091937;28;20221;-83
2022/08/05 11:06:26;;;;;;;3.55;3.25;;;;;;;32.06;33.18;94643.16;5092465;28;20587;-84
2022/08/05 11:09:14;;;;;;;3.40;3.10;;;;;;;32.08;33.40;94648.94;5092391;28;20198;-85
2022/08/05 11:11:43;;;;;;;4.43;3.20;;;;;;;32.04;32.94;94642.63;5091729;28;20201;-85
2022/08/05 11:14:12;;;;;;;3.45;3.15;;;;;;;32.02;33.05;94634.19;5090726;28;20714;-84
2022/08/05 11:16:39;;;;;;;3.40;3.10;;;;;;;32.04;32.62;94640.78;5093313;28;20205;-83
2022/08/05 11:19:25;;;;;;;4.28;3.65;;;;;;;32.07;32.86;94631.50;5091186;28;20200;-85
2022/08/05 11:21:52;;;;;;;4.88;3.00;;;;;;;31.86;32.83;94636.09;5091094;28;20189;-85
2022/08/05 11:24:20;;;;;;;3.47;3.28;;;;;;;31.80;33.73;94637.97;5090858;28;20726;-86
2022/08/05 11:26:48;;;;;;;3.65;2.80;;;;;;;31.72;33.58;94614.72;5091332;28;20264;-86
2022/08/05 11:29:35;;;;;;;3.20;3.00;;;;;;;31.90;32.78;94629.19;5092176;28;20201;-86
2022/08/05 11:32:24;;;;;;;3.75;3.50;;;;;;;31.82;33.25;94622.59;5093277;28;20256;-86
2022/08/05 11:34:51;;;;;;;4.43;3.30;;;;;;;31.81;33.01;94628.16;5096148;28;20190;-87
2022/08/05 11:37:56;;;;;;;3.45;3.13;;;;;;;31.74;33.74;94620.53;5097453;28;20189;-86
2022/08/05 11:41:00;;;;;;;5.43;3.20;;;;;;;31.76;33.95;94607.81;5013548;28;20311;-89
2022/08/05 11:43:30;;;;;;;6.30;3.25;;;;;;;31.73;33.58;94603.84;5013536;28;20199;-88
2022/08/05 11:46:00;;;;;;;3.33;3.08;;;;;;;31.59;33.66;94579.09;5013136;28;20203;-87
2022/08/05 11:48:27;;;;;;;3.80;3.38;;;;;;;31.71;33.91;94595.41;5012616;28;20277;-89